地図

経路データ

SID SEASON NUMBER BASIN SUBBASIN NAME ISO_TIME NATURE LAT LON WMO_WIND WMO_PRES WMO_AGENCY TRACK_TYPE DIST2LAND LANDFALL IFLAG USA_AGENCY USA_ATCF_ID USA_LAT USA_LON USA_RECORD USA_STATUS USA_WIND USA_PRES USA_SSHS USA_R34_NE USA_R34_SE USA_R34_SW USA_R34_NW USA_R50_NE USA_R50_SE USA_R50_SW USA_R50_NW USA_R64_NE USA_R64_SE USA_R64_SW USA_R64_NW USA_POCI USA_ROCI USA_RMW USA_EYE TOKYO_LAT TOKYO_LON TOKYO_GRADE TOKYO_WIND TOKYO_PRES TOKYO_R50_DIR TOKYO_R50_LONG TOKYO_R50_SHORT TOKYO_R30_DIR TOKYO_R30_LONG TOKYO_R30_SHORT TOKYO_LAND CMA_LAT CMA_LON CMA_CAT CMA_WIND CMA_PRES HKO_LAT HKO_LON HKO_CAT HKO_WIND HKO_PRES NEWDELHI_LAT NEWDELHI_LON NEWDELHI_GRADE NEWDELHI_WIND NEWDELHI_PRES NEWDELHI_CI NEWDELHI_DP NEWDELHI_POCI REUNION_LAT REUNION_LON REUNION_TYPE REUNION_WIND REUNION_PRES REUNION_TNUM REUNION_CI REUNION_RMW REUNION_R34_NE REUNION_R34_SE REUNION_R34_SW REUNION_R34_NW REUNION_R50_NE REUNION_R50_SE REUNION_R50_SW REUNION_R50_NW REUNION_R64_NE REUNION_R64_SE REUNION_R64_SW REUNION_R64_NW BOM_LAT BOM_LON BOM_TYPE BOM_WIND BOM_PRES BOM_TNUM BOM_CI BOM_RMW BOM_R34_NE BOM_R34_SE BOM_R34_SW BOM_R34_NW BOM_R50_NE BOM_R50_SE BOM_R50_SW BOM_R50_NW BOM_R64_NE BOM_R64_SE BOM_R64_SW BOM_R64_NW BOM_ROCI BOM_POCI BOM_EYE BOM_POS_METHOD BOM_PRES_METHOD NADI_LAT NADI_LON NADI_CAT NADI_WIND NADI_PRES WELLINGTON_LAT WELLINGTON_LON WELLINGTON_WIND WELLINGTON_PRES DS824_LAT DS824_LON DS824_STAGE DS824_WIND DS824_PRES TD9636_LAT TD9636_LON TD9636_STAGE TD9636_WIND TD9636_PRES TD9635_LAT TD9635_LON TD9635_WIND TD9635_PRES TD9635_ROCI NEUMANN_LAT NEUMANN_LON NEUMANN_CLASS NEUMANN_WIND NEUMANN_PRES MLC_LAT MLC_LON MLC_CLASS MLC_WIND MLC_PRES USA_GUST BOM_GUST BOM_GUST_PER REUNION_GUST REUNION_GUST_PER USA_SEAHGT USA_SEARAD_NE USA_SEARAD_SE USA_SEARAD_SW USA_SEARAD_NW STORM_SPEED STORM_DIR
1862001S12104 1862 2 SI WA NOT_NAMED 1862-01-01 06:00:00 NR -12.4000 104.000 main 618 618 _____O________ -1 -12.4000 104.000 99 9.90000 1 0
1862001S12104 1862 2 SI WA NOT_NAMED 1862-01-01 09:00:00 NR -12.3517 103.998 main 618 608 _____P________ -1 -12.3517 103.998 99 1 343
1862001S12104 1862 2 SI WA NOT_NAMED 1862-01-01 12:00:00 NR -12.3152 103.986 main 608 608 _____P________ -1 -12.3152 103.986 99 1 316
1862001S12104 1862 2 SI WA NOT_NAMED 1862-01-01 15:00:00 NR -12.3022 103.953 main 608 608 _____P________ -1 -12.3022 103.953 99 1 265
1862001S12104 1862 2 SI WA NOT_NAMED 1862-01-01 18:00:00 NR -12.3245 103.888 main 613 613 _____P________ -1 -12.3245 103.888 99 2 241
1862001S12104 1862 2 SI WA NOT_NAMED 1862-01-01 21:00:00 NR -12.3937 103.781 main 628 628 _____P________ -1 -12.3937 103.781 99 3 233
1862001S12104 1862 2 SI WA NOT_NAMED 1862-01-02 00:00:00 NR -12.5216 103.621 main 648 648 _____P________ -1 -12.5216 103.621 99 5 229
1862001S12104 1862 2 SI WA NOT_NAMED 1862-01-02 03:00:00 NR -12.7198 103.398 main 678 678 _____P________ -1 -12.7198 103.398 99 7 227
1862001S12104 1862 2 SI WA NOT_NAMED 1862-01-02 06:00:00 NR -13.0000 103.100 main 723 723 _____O________ -1 -13.0000 103.100 99 9.90000 9 225
1862001S12104 1862 2 SI WA NOT_NAMED 1862-01-02 09:00:00 NR -13.3691 102.721 main 784 784 _____P________ -1 -13.3691 102.721 99 11 225
1862001S12104 1862 2 SI WA NOT_NAMED 1862-01-02 12:00:00 NR -13.8153 102.274 main 845 845 _____P________ -1 -13.8153 102.274 99 13 224
1862001S12104 1862 2 SI WA NOT_NAMED 1862-01-02 15:00:00 NR -14.3223 101.778 main 918 918 _____P________ -1 -14.3223 101.778 99 15 223
1862001S12104 1862 2 SI WA NOT_NAMED 1862-01-02 18:00:00 NR -14.8737 101.250 main 1006 1006 _____P________ -1 -14.8737 101.250 99 15 222
1862001S12104 1862 2 SI WA NOT_NAMED 1862-01-02 21:00:00 NR -15.4531 100.709 main 1090 1090 _____P________ -1 -15.4531 100.709 99 16 222
1862001S12104 1862 2 SI WA NOT_NAMED 1862-01-03 00:00:00 NR -16.0445 100.174 main 1165 1165 _____P________ -1 -16.0445 100.174 99 16 220
1862001S12104 1862 2 SI WA NOT_NAMED 1862-01-03 03:00:00 NR -16.6320 99.6646 main 1250 1250 _____P________ -1 -16.6320 99.6646 99 15 219
1862001S12104 1862 2 SI WA NOT_NAMED 1862-01-03 06:00:00 NR -17.2000 99.2000 main 1334 1334 _____O________ -1 -17.2000 99.2000 99 9.90000 14 216
1862001S12104 1862 2 SI WA NOT_NAMED 1862-01-03 09:00:00 NR -17.7359 98.8189 main 1404 1404 _____P________ -1 -17.7359 98.8189 99 13 213
1862001S12104 1862 2 SI WA NOT_NAMED 1862-01-03 12:00:00 NR -18.2681 98.4721 main 1478 1478 _____P________ -1 -18.2681 98.4721 99 12 211
1862001S12104 1862 2 SI WA NOT_NAMED 1862-01-03 15:00:00 NR -18.7880 98.1593 main 1542 1542 _____P________ -1 -18.7880 98.1593 99 12 209
1862001S12104 1862 2 SI WA NOT_NAMED 1862-01-03 18:00:00 NR -19.2870 97.8802 main 1606 1606 _____P________ -1 -19.2870 97.8802 99 11 207
1862001S12104 1862 2 SI WA NOT_NAMED 1862-01-03 21:00:00 NR -19.7565 97.6348 main 1670 1670 _____P________ -1 -19.7565 97.6348 99 10 205
1862001S12104 1862 2 SI WA NOT_NAMED 1862-01-04 00:00:00 NR -20.1877 97.4230 main 1697 1694 _____P________ -1 -20.1877 97.4230 99 9 204
1862001S12104 1862 2 SI WA NOT_NAMED 1862-01-04 03:00:00 NR -20.5718 97.2447 main 1708 1704 _____P________ -1 -20.5718 97.2447 99 8 203
1862001S12104 1862 2 SI WA NOT_NAMED 1862-01-04 06:00:00 NR -20.9000 97.1000 main 1713 1711 _____O________ -1 -20.9000 97.1000 99 9.90000 6 202
1862001S12104 1862 2 SI WA NOT_NAMED 1862-01-04 09:00:00 NR -21.1663 96.9882 main 1716 1713 _____P________ -1 -21.1663 96.9882 99 5 201
1862001S12104 1862 2 SI WA NOT_NAMED 1862-01-04 12:00:00 NR -21.3761 96.9058 main 1721 1718 _____P________ -1 -21.3761 96.9058 99 4 200
1862001S12104 1862 2 SI WA NOT_NAMED 1862-01-04 15:00:00 NR -21.5374 96.8490 main 1728 1723 _____P________ -1 -21.5374 96.8490 99 3 198
1862001S12104 1862 2 SI WA NOT_NAMED 1862-01-04 18:00:00 NR -21.6583 96.8135 main 1723 1723 _____P________ -1 -21.6583 96.8135 99 2 195
1862001S12104 1862 2 SI WA NOT_NAMED 1862-01-04 21:00:00 NR -21.7469 96.7951 main 1723 1720 _____P________ -1 -21.7469 96.7951 99 2 182
1862001S12104 1862 2 SI WA NOT_NAMED 1862-01-05 00:00:00 NR -21.8114 96.7896 main 1720 1718 _____P________ -1 -21.8114 96.7896 99 1 0
1862001S12104 1862 2 SI WA NOT_NAMED 1862-01-05 03:00:00 NR -21.8597 96.7926 main 1718 1718 _____P________ -1 -21.8597 96.7926 99 1 0
1862001S12104 1862 2 SI WA NOT_NAMED 1862-01-05 06:00:00 NR -21.9000 96.8000 main 1718 _____O________ -1 -21.9000 96.8000 99 9.90000 1 0

IBTrACS Databaseについて

本データベースは、米国NOAAが公開する1842年以降の世界の熱帯低気圧のベストトラックデータアーカイブInternational Best Track Archive for Climate Stewardship (IBTrACS)を、ウェブで閲覧しやすい形式に変換したものです。

最終更新日:2021-10-27